Time;durP1;ratioP1;P1;durP2;ratioP2;P2;SDS_P1;SDS_P2;PMS_P1;PMS_P2;Temp;Humidity;BMP_temperature;BMP_pressure;BME280_temperature;BME280_humidity;BME280_pressure;Samples;Min_cycle;Max_cycle;Signal;HPM_P1;HPM_P2
2022/05/06 00:00:16;;;;;;;;;;;;;;;8.93;100.00;99020.44;10491860;28;19936;-79
2022/05/06 00:05:19;;;;;;;;;;;;;;;8.88;100.00;99028.03;10493485;28;19937;-81
2022/05/06 00:10:23;;;;;;;;;;;;;;;8.88;100.00;99029.88;10478543;28;20051;-78
2022/05/06 00:15:26;;;;;;;;;;;;;;;8.81;100.00;99026.88;10497337;28;19984;-79
2022/05/06 00:20:28;;;;;;;;;;;;;;;8.78;100.00;99022.63;10494001;28;19967;-80
2022/05/06 00:25:33;;;;;;;;;;;;;;;8.77;100.00;99029.00;10501624;28;20037;-80
2022/05/06 00:30:35;;;;;;;;;;;;;;;8.76;100.00;99029.97;10526711;28;19920;-79
2022/05/06 00:35:41;;;;;;;;;;;;;;;8.72;100.00;99025.00;10512096;28;19932;-77
2022/05/06 00:40:45;;;;;;;;;;;;;;;8.67;100.00;99024.56;10481424;28;19932;-80
2022/05/06 00:45:49;;;;;;;;;;;;;;;8.61;100.00;99026.81;10477377;28;20422;-82
2022/05/06 00:50:53;;;;;;;;;;;;;;;8.55;100.00;99021.94;10492981;28;19969;-79
2022/05/06 00:55:57;;;;;;;;;;;;;;;8.40;100.00;99020.59;10498027;28;20422;-79
2022/05/06 01:01:02;;;;;;;;;;;;;;;8.34;100.00;99021.97;10490867;28;20447;-78
2022/05/06 01:06:07;;;;;;;;;;;;;;;8.29;100.00;99018.81;10496002;28;19950;-77
2022/05/06 01:11:14;;;;;;;;;;;;;;;8.25;100.00;99031.66;10502259;28;19972;-78
2022/05/06 01:16:18;;;;;;;;;;;;;;;8.18;100.00;99027.78;10485509;28;20355;-79
2022/05/06 01:21:27;;;;;;;;;;;;;;;8.10;100.00;99039.19;10523350;28;19928;-76
2022/05/06 01:26:49;;;;;;;;;;;;;;;8.02;100.00;99034.47;10496932;28;19924;-76
2022/05/06 01:31:52;;;;;;;;;;;;;;;7.97;100.00;99042.03;10470521;28;20163;-77
2022/05/06 01:36:56;;;;;;;;;;;;;;;7.91;100.00;99042.56;10490454;28;19964;-77
2022/05/06 01:42:05;;;;;;;;;;;;;;;7.82;100.00;99041.50;10494058;28;19936;-79
2022/05/06 01:47:30;;;;;;;;;;;;;;;7.77;100.00;99042.88;10487474;28;19932;-77
2022/05/06 01:52:41;;;;;;;;;;;;;;;7.69;100.00;99044.38;10476427;28;19989;-77
2022/05/06 01:57:45;;;;;;;;;;;;;;;7.63;100.00;99046.72;10492230;28;19932;-77
2022/05/06 02:02:48;;;;;;;;;;;;;;;7.58;100.00;99047.09;10477291;28;19928;-79
2022/05/06 02:08:00;;;;;;;;;;;;;;;7.53;100.00;99044.75;10477624;28;20505;-78
2022/05/06 02:13:05;;;;;;;;;;;;;;;7.42;100.00;99038.59;10490326;28;19929;-79
2022/05/06 02:18:27;;;;;;;;;;;;;;;7.37;100.00;99047.84;10492831;28;19959;-79
2022/05/06 02:23:50;;;;;;;;;;;;;;;7.32;100.00;99034.00;10501790;28;19932;-79
2022/05/06 02:29:10;;;;;;;;;;;;;;;7.27;100.00;99030.81;10502665;28;19982;-79
2022/05/06 02:34:16;;;;;;;;;;;;;;;7.18;100.00;99024.38;10489286;28;19987;-79
2022/05/06 02:39:26;;;;;;;;;;;;;;;7.11;100.00;99038.41;10485034;28;19932;-79
2022/05/06 02:44:41;;;;;;;;;;;;;;;6.97;100.00;99035.03;10477508;28;20013;-76
2022/05/06 02:49:45;;;;;;;;;;;;;;;6.89;100.00;99042.81;10465772;28;19932;-76
2022/05/06 02:54:50;;;;;;;;;;;;;;;6.79;100.00;99043.53;10455956;28;19944;-78
2022/05/06 02:59:57;;;;;;;;;;;;;;;6.72;100.00;99047.69;10473000;28;19925;-76
2022/05/06 03:05:03;;;;;;;;;;;;;;;6.67;100.00;99052.53;10459153;28;22106;-75
2022/05/06 03:10:07;;;;;;;;;;;;;;;6.59;100.00;99050.47;10470465;28;20663;-76
2022/05/06 03:15:13;;;;;;;;;;;;;;;6.54;100.00;99043.75;10466518;28;20396;-76
2022/05/06 03:20:39;;;;;;;;;;;;;;;6.48;100.00;99055.81;10485057;28;19932;-75
2022/05/06 03:25:42;;;;;;;;;;;;;;;6.42;100.00;99051.78;10460100;28;21188;-77
2022/05/06 03:30:47;;;;;;;;;;;;;;;6.37;100.00;99048.63;10481174;28;20014;-76
2022/05/06 03:36:01;;;;;;;;;;;;;;;6.33;100.00;99052.50;10476725;28;19928;-75
2022/05/06 03:41:08;;;;;;;;;;;;;;;6.30;100.00;99050.06;10472260;28;19924;-75
2022/05/06 03:46:12;;;;;;;;;;;;;;;6.28;100.00;99054.69;10467866;28;19928;-77
2022/05/06 03:51:21;;;;;;;;;;;;;;;6.21;100.00;99059.66;10466261;28;19993;-76
2022/05/06 03:56:31;;;;;;;;;;;;;;;6.14;100.00;99059.28;10461331;28;20332;-76
2022/05/06 04:01:41;;;;;;;;;;;;;;;6.15;100.00;99063.66;10465208;28;19933;-76
2022/05/06 04:06:49;;;;;;;;;;;;;;;6.14;100.00;99069.97;10473544;28;20654;-76
2022/05/06 04:11:53;;;;;;;;;;;;;;;6.12;100.00;99079.06;10469858;28;19924;-75
2022/05/06 04:16:58;;;;;;;;;;;;;;;6.10;100.00;99073.84;10480167;28;19934;-75
2022/05/06 04:28:07;;;;;;;;;;;;;;;6.14;100.00;99086.03;10492278;28;19932;-78
2022/05/06 04:33:13;;;;;;;;;;;;;;;6.19;100.00;99091.03;10508038;28;21216;-75
2022/05/06 04:38:20;;;;;;;;;;;;;;;6.26;100.00;99099.44;10484531;28;19924;-77
2022/05/06 04:43:23;;;;;;;;;;;;;;;6.31;100.00;99108.81;10471817;28;20026;-76
2022/05/06 04:48:31;;;;;;;;;;;;;;;6.35;100.00;99111.28;10483588;28;19961;-76
2022/05/06 04:53:36;;;;;;;;;;;;;;;6.38;100.00;99125.28;10482489;28;19987;-77
2022/05/06 04:58:39;;;;;;;;;;;;;;;6.43;100.00;99128.44;10472036;28;20324;-77
2022/05/06 05:03:50;;;;;;;;;;;;;;;6.50;100.00;99122.63;10482627;28;19958;-76
2022/05/06 05:08:53;;;;;;;;;;;;;;;6.61;100.00;99130.69;10471105;28;19932;-76
2022/05/06 05:13:56;;;;;;;;;;;;;;;6.68;100.00;99145.28;10489540;28;20015;-77
2022/05/06 05:19:10;;;;;;;;;;;;;;;6.81;100.00;99145.22;10486755;28;20414;-76
2022/05/06 05:24:20;;;;;;;;;;;;;;;6.93;100.00;99143.38;10489507;28;20027;-76
2022/05/06 05:29:24;;;;;;;;;;;;;;;7.03;100.00;99130.13;10473233;28;19932;-76
2022/05/06 05:34:28;;;;;;;;;;;;;;;7.14;100.00;99137.31;10466222;28;19932;-76
2022/05/06 05:39:32;;;;;;;;;;;;;;;7.22;100.00;99142.94;10485466;28;19936;-77
2022/05/06 05:50:04;;;;;;;;;;;;;;;7.35;100.00;99145.47;10484156;28;19954;-76
2022/05/06 05:55:08;;;;;;;;;;;;;;;7.42;100.00;99143.16;10485793;28;19939;-77
2022/05/06 06:00:12;;;;;;;;;;;;;;;7.47;100.00;99148.97;10466967;28;19932;-77
2022/05/06 06:05:16;;;;;;;;;;;;;;;7.47;100.00;99155.22;10485849;28;19939;-76
2022/05/06 06:10:20;;;;;;;;;;;;;;;7.60;100.00;99157.75;10482704;28;19964;-76
2022/05/06 06:15:29;;;;;;;;;;;;;;;7.71;100.00;99165.75;10486018;28;19956;-76
2022/05/06 06:20:33;;;;;;;;;;;;;;;7.85;100.00;99159.31;10468735;28;19932;-76
2022/05/06 06:25:36;;;;;;;;;;;;;;;8.02;100.00;99154.34;10482317;28;19937;-77
2022/05/06 06:30:40;;;;;;;;;;;;;;;8.15;100.00;99160.41;10467577;28;20018;-76
2022/05/06 06:35:44;;;;;;;;;;;;;;;8.30;100.00;99155.59;10464967;28;19964;-76
2022/05/06 06:40:49;;;;;;;;;;;;;;;8.50;100.00;99155.78;10466280;28;19955;-77
2022/05/06 06:45:52;;;;;;;;;;;;;;;8.67;100.00;99153.50;10485932;28;20316;-76
2022/05/06 06:51:12;;;;;;;;;;;;;;;8.85;100.00;99161.81;10472503;28;19928;-77
2022/05/06 06:56:25;;;;;;;;;;;;;;;9.09;100.00;99162.38;10468796;28;20339;-77
2022/05/06 07:01:28;;;;;;;;;;;;;;;9.24;100.00;99157.50;10480739;28;19950;-76
2022/05/06 07:11:56;;;;;;;;;;;;;;;9.75;100.00;99162.91;10488216;28;19932;-76
2022/05/06 07:17:13;;;;;;;;;;;;;;;10.05;100.00;99166.53;10459388;28;19951;-77
2022/05/06 07:22:23;;;;;;;;;;;;;;;10.46;100.00;99172.66;10487913;28;19948;-76
2022/05/06 07:27:29;;;;;;;;;;;;;;;10.75;100.00;99162.84;10476761;28;20018;-76
2022/05/06 07:32:32;;;;;;;;;;;;;;;11.01;100.00;99155.00;10488996;28;20384;-76
2022/05/06 07:37:36;;;;;;;;;;;;;;;11.34;100.00;99166.25;10491450;28;20116;-77
2022/05/06 07:42:39;;;;;;;;;;;;;;;11.75;100.00;99163.22;10536044;28;20899;-78
2022/05/06 07:47:41;;;;;;;;;;;;;;;12.07;100.00;99161.06;10486955;28;19932;-76
2022/05/06 07:53:03;;;;;;;;;;;;;;;12.43;100.00;99158.38;10482835;28;20206;-77
2022/05/06 07:58:06;;;;;;;;;;;;;;;12.71;100.00;99150.16;10482918;28;19932;-77
2022/05/06 08:08:31;;;;;;;;;;;;;;;13.33;100.00;99151.91;10477362;28;20009;-77
2022/05/06 08:13:34;;;;;;;;;;;;;;;13.55;100.00;99159.50;10486186;28;20015;-78
2022/05/06 08:18:37;;;;;;;;;;;;;;;13.71;100.00;99153.31;10478603;28;20051;-77
2022/05/06 08:23:41;;;;;;;;;;;;;;;13.89;100.00;99156.91;10485889;28;19932;-77
2022/05/06 08:28:44;;;;;;;;;;;;;;;14.07;100.00;99152.22;10465309;28;19947;-77
2022/05/06 08:33:47;;;;;;;;;;;;;;;14.15;100.00;99156.81;10465138;28;20354;-77
2022/05/06 08:38:51;;;;;;;;;;;;;;;14.23;100.00;99161.41;10458746;28;19936;-77
2022/05/06 08:43:54;;;;;;;;;;;;;;;14.31;100.00;99162.25;10487552;28;19932;-77
2022/05/06 08:54:19;;;;;;;;;;;;;;;14.66;100.00;99162.09;10482476;28;19940;-76
2022/05/06 08:59:21;;;;;;;;;;;;;;;14.74;98.42;99159.44;10480846;28;20023;-77
2022/05/06 09:04:24;;;;;;;;;;;;;;;14.80;99.62;99155.19;10464061;28;19932;-77
2022/05/06 09:09:28;;;;;;;;;;;;;;;14.95;100.00;99153.47;10467419;28;19938;-77
2022/05/06 09:19:52;;;;;;;;;;;;;;;15.17;98.41;99152.94;10486631;28;20697;-77
2022/05/06 09:24:56;;;;;;;;;;;;;;;15.34;100.00;99151.88;10494084;28;19938;-78
2022/05/06 09:30:07;;;;;;;;;;;;;;;15.30;91.52;99142.38;10489544;28;20385;-78
2022/05/06 09:35:12;;;;;;;;;;;;;;;15.27;94.30;99148.16;10490398;28;19939;-78
2022/05/06 09:40:18;;;;;;;;;;;;;;;15.46;94.75;99141.47;10465379;28;19932;-76
2022/05/06 09:45:28;;;;;;;;;;;;;;;15.70;91.86;99137.81;10490478;28;19932;-76
2022/05/06 09:50:32;;;;;;;;;;;;;;;15.76;86.47;99140.84;10473803;28;19944;-77
2022/05/06 09:55:37;;;;;;;;;;;;;;;15.83;87.32;99142.69;10487416;28;19932;-77
2022/05/06 10:00:40;;;;;;;;;;;;;;;15.84;96.76;99136.25;10490694;28;19932;-78
2022/05/06 10:05:44;;;;;;;;;;;;;;;15.75;86.65;99134.59;10485746;28;20407;-77
2022/05/06 10:10:55;;;;;;;;;;;;;;;15.66;92.29;99132.91;10484105;28;19940;-77
2022/05/06 10:15:58;;;;;;;;;;;;;;;15.97;90.69;99138.38;10490401;28;19932;-76
2022/05/06 10:21:01;;;;;;;;;;;;;;;16.14;97.78;99132.84;10490747;28;19939;-77
2022/05/06 10:26:05;;;;;;;;;;;;;;;15.98;93.73;99134.66;10485682;28;20412;-77
2022/05/06 10:36:44;;;;;;;;;;;;;;;16.48;87.64;99126.16;10490286;28;19932;-77
2022/05/06 10:42:00;;;;;;;;;;;;;;;16.28;81.20;99132.09;10491138;28;19928;-77
2022/05/06 10:47:04;;;;;;;;;;;;;;;16.53;87.13;99125.59;10486515;28;19938;-77
2022/05/06 10:52:28;;;;;;;;;;;;;;;16.62;83.71;99121.78;10491690;28;20375;-77
2022/05/06 10:57:33;;;;;;;;;;;;;;;16.79;79.66;99123.34;10477341;28;19978;-77
2022/05/06 11:02:37;;;;;;;;;;;;;;;16.96;73.08;99122.38;10488696;28;20309;-77
2022/05/06 11:07:45;;;;;;;;;;;;;;;16.88;71.49;99115.91;10482313;28;19928;-77
2022/05/06 11:12:50;;;;;;;;;;;;;;;17.24;75.59;99111.69;10498319;28;19959;-76
2022/05/06 11:17:55;;;;;;;;;;;;;;;17.71;73.92;99113.16;10502371;28;20019;-76
2022/05/06 11:22:59;;;;;;;;;;;;;;;17.64;76.35;99103.19;10485980;28;19985;-76
2022/05/06 11:28:04;;;;;;;;;;;;;;;17.31;68.54;99095.44;10465063;28;19932;-77
2022/05/06 11:33:07;;;;;;;;;;;;;;;17.40;69.39;99111.47;10476336;28;19937;-77
2022/05/06 11:38:10;;;;;;;;;;;;;;;17.27;73.38;99108.59;10482262;28;19932;-76
2022/05/06 11:43:22;;;;;;;;;;;;;;;17.55;73.03;99097.00;10485321;28;19958;-76
2022/05/06 11:48:25;;;;;;;;;;;;;;;17.70;73.49;99096.97;10484026;28;19958;-77
2022/05/06 11:53:27;;;;;;;;;;;;;;;17.64;69.25;99093.13;10484308;28;20771;-77
2022/05/06 11:58:33;;;;;;;;;;;;;;;17.89;69.94;99086.50;10466957;28;19928;-77
2022/05/06 12:03:38;;;;;;;;;;;;;;;18.02;68.41;99089.41;10483042;28;19951;-77
2022/05/06 12:09:08;;;;;;;;;;;;;;;17.84;65.22;99084.34;10485650;28;19932;-76
2022/05/06 12:14:13;;;;;;;;;;;;;;;18.00;67.03;99083.31;10483232;28;19932;-77
2022/05/06 12:19:16;;;;;;;;;;;;;;;18.62;66.97;99080.94;10467025;28;19983;-77
2022/05/06 12:24:19;;;;;;;;;;;;;;;18.92;60.13;99075.28;10485401;28;19932;-77
2022/05/06 12:29:23;;;;;;;;;;;;;;;19.18;61.76;99062.88;10464059;28;20678;-77
2022/05/06 12:34:28;;;;;;;;;;;;;;;19.56;61.05;99060.53;10473564;28;19938;-77
2022/05/06 12:39:31;;;;;;;;;;;;;;;19.75;58.82;99068.16;10484337;28;20397;-77
2022/05/06 12:44:37;;;;;;;;;;;;;;;19.94;57.85;99064.66;10484312;28;19932;-77
2022/05/06 12:49:42;;;;;;;;;;;;;;;20.10;55.35;99066.19;10482428;28;19938;-77
2022/05/06 12:54:45;;;;;;;;;;;;;;;20.36;56.11;99069.16;10491602;28;20348;-77
2022/05/06 12:59:49;;;;;;;;;;;;;;;20.85;54.66;99072.56;10490925;28;19933;-77
2022/05/06 13:04:52;;;;;;;;;;;;;;;21.17;52.23;99057.13;10476804;28;20007;-77
2022/05/06 13:09:55;;;;;;;;;;;;;;;21.60;53.24;99053.00;10468721;28;19935;-77
2022/05/06 13:15:00;;;;;;;;;;;;;;;21.52;48.91;99062.25;10489958;28;19928;-78
2022/05/06 13:20:02;;;;;;;;;;;;;;;20.79;49.61;99057.81;10492923;28;19936;-77
2022/05/06 13:25:05;;;;;;;;;;;;;;;20.50;50.57;99048.09;10471559;28;19932;-77
2022/05/06 13:30:10;;;;;;;;;;;;;;;20.79;49.95;99044.13;10487466;28;20351;-77
2022/05/06 13:35:13;;;;;;;;;;;;;;;21.19;48.09;99032.22;10493405;28;19939;-77
2022/05/06 13:40:16;;;;;;;;;;;;;;;21.78;49.98;99033.06;10496506;28;19985;-78
2022/05/06 13:45:21;;;;;;;;;;;;;;;21.76;48.86;99029.69;10503314;28;19939;-79
2022/05/06 13:50:23;;;;;;;;;;;;;;;21.39;46.00;99029.41;10422510;28;20550;-79
2022/05/06 13:59:03;;;;;;;;;;;;;;;21.34;46.73;99032.00;10443550;28;20285;-79
2022/05/06 14:00:50;;;;;;;;;;;;;;;21.46;46.76;99032.97;10448430;28;19933;-80
2022/05/06 14:05:54;;;;;;;;;;;;;;;21.95;46.32;99022.41;10447979;28;19933;-79
2022/05/06 14:10:58;;;;;;;;;;;;;;;22.06;46.25;99018.09;10447762;28;19925;-82
2022/05/06 14:16:03;;;;;;;;;;;;;;;22.60;47.60;99017.72;10457925;28;20023;-84
2022/05/06 14:21:06;;;;;;;;;;;;;;;22.50;47.40;99028.38;10459192;28;19979;-80
2022/05/06 14:26:09;;;;;;;;;;;;;;;21.65;46.11;99033.13;10460065;28;19947;-83
2022/05/06 14:31:14;;;;;;;;;;;;;;;21.30;47.62;99023.34;10458476;28;20487;-85
2022/05/06 14:36:27;;;;;;;;;;;;;;;21.91;47.26;99012.09;10452489;28;19929;-81
2022/05/06 14:41:33;;;;;;;;;;;;;;;21.63;46.09;99013.31;10448686;28;20270;-79
2022/05/06 14:46:39;;;;;;;;;;;;;;;21.31;48.02;99010.50;10460262;28;19925;-80
2022/05/06 14:51:42;;;;;;;;;;;;;;;20.87;47.28;99016.53;10465531;28;19935;-79
2022/05/06 14:56:44;;;;;;;;;;;;;;;20.29;48.05;99001.56;10461717;28;19932;-83
2022/05/06 15:01:51;;;;;;;;;;;;;;;19.27;48.88;99001.56;10478680;28;20024;-77
2022/05/06 15:06:54;;;;;;;;;;;;;;;19.19;49.77;98999.84;10496854;28;19931;-79
2022/05/06 15:11:57;;;;;;;;;;;;;;;19.26;51.52;98994.41;10483303;28;19925;-80
2022/05/06 15:17:08;;;;;;;;;;;;;;;19.54;49.86;98988.00;10450896;28;20828;-80
2022/05/06 15:22:11;;;;;;;;;;;;;;;19.78;49.95;98983.84;10452554;28;21350;-82
2022/05/06 15:27:15;;;;;;;;;;;;;;;20.39;48.40;98982.00;10462186;28;19940;-81
2022/05/06 15:32:20;;;;;;;;;;;;;;;20.94;48.14;98987.22;10456229;28;20520;-82
2022/05/06 15:37:23;;;;;;;;;;;;;;;21.05;47.72;98985.69;10448485;28;19979;-82
2022/05/06 15:42:27;;;;;;;;;;;;;;;21.20;46.78;98985.44;10466512;28;20253;-82
2022/05/06 15:47:31;;;;;;;;;;;;;;;21.55;47.84;98963.13;10461000;28;20001;-82
2022/05/06 15:52:38;;;;;;;;;;;;;;;21.81;45.46;98966.81;10456526;28;20386;-83
2022/05/06 15:57:41;;;;;;;;;;;;;;;22.35;46.29;98971.88;10465315;28;19932;-82
2022/05/06 16:02:45;;;;;;;;;;;;;;;22.02;46.79;98983.97;10469899;28;19933;-82
2022/05/06 16:07:48;;;;;;;;;;;;;;;21.93;49.51;98985.31;10465945;28;20043;-82
2022/05/06 16:12:52;;;;;;;;;;;;;;;22.55;49.60;98984.59;10468366;28;19979;-80
2022/05/06 16:17:57;;;;;;;;;;;;;;;22.84;45.81;98979.47;10461990;28;19971;-79
2022/05/06 16:23:07;;;;;;;;;;;;;;;23.29;45.71;98979.16;10463982;28;20652;-82
2022/05/06 16:28:11;;;;;;;;;;;;;;;23.67;46.14;98980.78;10451724;28;20352;-81
2022/05/06 16:33:15;;;;;;;;;;;;;;;23.81;44.32;98988.84;10462441;28;20147;-81
2022/05/06 16:38:19;;;;;;;;;;;;;;;22.84;43.49;98980.28;10454796;28;19955;-81
2022/05/06 16:43:22;;;;;;;;;;;;;;;22.30;45.70;98983.53;10458327;28;19932;-80
2022/05/06 16:48:27;;;;;;;;;;;;;;;21.69;47.36;98985.03;10456624;28;19934;-79
2022/05/06 16:53:32;;;;;;;;;;;;;;;21.04;47.50;98980.44;10458120;28;19968;-78
2022/05/06 16:58:36;;;;;;;;;;;;;;;20.91;47.04;98984.06;10442339;28;20004;-79
2022/05/06 17:03:40;;;;;;;;;;;;;;;20.24;48.24;98982.22;10438037;28;19937;-78
2022/05/06 17:08:43;;;;;;;;;;;;;;;19.79;49.60;98984.69;10448968;28;19933;-85
2022/05/06 17:13:48;;;;;;;;;;;;;;;19.36;50.41;98983.09;10468746;28;19928;-79
2022/05/06 17:18:53;;;;;;;;;;;;;;;19.09;51.38;98983.84;10457837;28;20363;-79
2022/05/06 17:23:56;;;;;;;;;;;;;;;18.80;51.34;98984.91;10459456;28;20342;-78
2022/05/06 17:28:59;;;;;;;;;;;;;;;18.66;51.51;98989.44;10456012;28;20019;-81
2022/05/06 17:34:05;;;;;;;;;;;;;;;18.75;52.35;98984.66;10463628;28;20385;-80
2022/05/06 17:39:08;;;;;;;;;;;;;;;18.88;52.00;98978.44;10468487;28;20024;-80
2022/05/06 17:44:11;;;;;;;;;;;;;;;18.87;51.14;98983.06;10450778;28;19932;-81
2022/05/06 17:49:15;;;;;;;;;;;;;;;18.53;51.59;98986.59;10468427;28;20016;-81
2022/05/06 17:54:18;;;;;;;;;;;;;;;18.38;53.27;98979.41;10450760;28;21322;-81
2022/05/06 17:59:21;;;;;;;;;;;;;;;18.33;52.63;98985.44;10427365;28;20810;-80
2022/05/06 18:04:25;;;;;;;;;;;;;;;18.42;52.66;98990.75;10418435;28;19935;-79
2022/05/06 18:09:28;;;;;;;;;;;;;;;18.24;51.72;98999.41;10418520;28;19987;-79
2022/05/06 18:14:31;;;;;;;;;;;;;;;18.09;51.50;98997.59;10417613;28;19947;-78
2022/05/06 18:19:35;;;;;;;;;;;;;;;17.92;52.66;99004.34;10403392;28;19929;-79
2022/05/06 18:24:38;;;;;;;;;;;;;;;17.67;53.25;98991.94;10416830;28;20131;-80
2022/05/06 18:29:41;;;;;;;;;;;;;;;17.54;53.74;99003.53;10424454;28;20005;-80
2022/05/06 18:34:45;;;;;;;;;;;;;;;17.37;54.14;99007.50;10420893;28;19939;-78
2022/05/06 18:39:51;;;;;;;;;;;;;;;17.31;54.20;99003.66;10437521;28;19960;-80
2022/05/06 18:44:53;;;;;;;;;;;;;;;17.14;55.04;99005.75;10420401;28;20027;-81
2022/05/06 18:49:57;;;;;;;;;;;;;;;17.04;54.79;99002.50;10434841;28;19928;-81
2022/05/06 18:55:08;;;;;;;;;;;;;;;16.96;54.37;99000.72;10465442;28;19925;-81
2022/05/06 19:00:14;;;;;;;;;;;;;;;16.90;54.98;99007.72;10473353;28;19939;-79
2022/05/06 19:05:25;;;;;;;;;;;;;;;16.77;69.33;99015.69;10495227;28;19950;-80
2022/05/06 19:10:28;;;;;;;;;;;;;;;16.42;78.14;99018.09;10481180;28;19925;-80
2022/05/06 19:15:31;;;;;;;;;;;;;;;16.29;78.92;99022.28;10452874;28;19976;-80
2022/05/06 19:20:35;;;;;;;;;;;;;;;16.12;80.73;99023.47;10466573;28;19949;-81
2022/05/06 19:25:38;;;;;;;;;;;;;;;15.96;79.46;99024.44;10468915;28;19960;-80
2022/05/06 19:30:41;;;;;;;;;;;;;;;15.84;75.86;99023.97;10468033;28;20059;-80
2022/05/06 19:35:45;;;;;;;;;;;;;;;15.69;77.41;99022.03;10458701;28;20051;-80
2022/05/06 19:40:50;;;;;;;;;;;;;;;15.58;74.36;99025.16;10470588;28;19932;-80
2022/05/06 19:45:53;;;;;;;;;;;;;;;15.49;73.94;99018.94;10472906;28;20043;-81
2022/05/06 19:50:57;;;;;;;;;;;;;;;15.37;74.61;99013.03;10473407;28;20295;-79
2022/05/06 19:56:00;;;;;;;;;;;;;;;15.22;80.08;99015.66;10473658;28;19971;-81
2022/05/06 20:01:07;;;;;;;;;;;;;;;15.11;76.13;99021.50;10453597;28;19968;-82
2022/05/06 20:06:11;;;;;;;;;;;;;;;15.04;80.33;99015.09;10454829;28;19939;-80
2022/05/06 20:11:14;;;;;;;;;;;;;;;14.89;86.40;99014.94;10456153;28;19955;-81
2022/05/06 20:16:18;;;;;;;;;;;;;;;14.42;91.39;99025.53;10470474;28;19939;-83
2022/05/06 20:21:22;;;;;;;;;;;;;;;14.36;91.44;99023.50;10470041;28;19937;-81
2022/05/06 20:26:26;;;;;;;;;;;;;;;14.14;95.44;99016.91;10472883;28;19933;-80
2022/05/06 20:31:29;;;;;;;;;;;;;;;14.02;97.54;99013.72;10454025;28;19943;-79
2022/05/06 20:36:33;;;;;;;;;;;;;;;13.89;100.00;99019.59;10471994;28;19971;-79
2022/05/06 20:41:36;;;;;;;;;;;;;;;13.81;100.00;99025.88;10466276;28;19939;-79
2022/05/06 20:46:39;;;;;;;;;;;;;;;13.76;100.00;99024.69;10469508;28;19988;-78
2022/05/06 20:51:44;;;;;;;;;;;;;;;13.68;100.00;99020.09;10469985;28;19932;-78
2022/05/06 20:59:19;;;;;;;;;;;;;;;13.49;100.00;99024.78;10466281;28;20935;-79
2022/05/06 21:02:10;;;;;;;;;;;;;;;13.37;100.00;99026.06;10462185;28;19975;-79
2022/05/06 21:07:15;;;;;;;;;;;;;;;13.19;100.00;99024.34;10460312;28;20771;-80
2022/05/06 21:17:38;;;;;;;;;;;;;;;12.78;100.00;99019.59;10465166;28;19955;-79
2022/05/06 21:22:43;;;;;;;;;;;;;;;12.70;100.00;99018.69;10486472;28;19968;-80
2022/05/06 21:27:46;;;;;;;;;;;;;;;12.62;100.00;99014.94;10483264;28;20394;-79
2022/05/06 21:32:48;;;;;;;;;;;;;;;12.54;100.00;99009.47;10492274;28;19963;-78
2022/05/06 21:37:53;;;;;;;;;;;;;;;12.45;100.00;99008.59;10487264;28;19944;-79
2022/05/06 21:42:55;;;;;;;;;;;;;;;12.42;100.00;99010.75;10467016;28;20778;-79
2022/05/06 21:47:58;;;;;;;;;;;;;;;12.34;100.00;99019.66;10491657;28;19931;-79
2022/05/06 21:53:02;;;;;;;;;;;;;;;12.21;100.00;99021.94;10464629;28;19953;-79
2022/05/06 21:58:05;;;;;;;;;;;;;;;12.07;100.00;99017.91;10428159;28;19985;-80
2022/05/06 22:03:09;;;;;;;;;;;;;;;12.02;100.00;99016.53;10435082;28;19940;-80
2022/05/06 22:08:13;;;;;;;;;;;;;;;12.03;100.00;99017.38;10419314;28;19969;-80
2022/05/06 22:13:16;;;;;;;;;;;;;;;12.01;100.00;99017.53;10435168;28;20036;-80
2022/05/06 22:18:19;;;;;;;;;;;;;;;11.95;100.00;99012.72;10412587;28;19937;-80
2022/05/06 22:23:23;;;;;;;;;;;;;;;11.97;100.00;99013.41;10436377;28;19940;-80
2022/05/06 22:28:27;;;;;;;;;;;;;;;11.96;100.00;99017.13;10444767;28;19928;-80
2022/05/06 22:38:51;;;;;;;;;;;;;;;11.86;100.00;99009.13;10444576;28;19932;-80
2022/05/06 22:49:16;;;;;;;;;;;;;;;11.77;100.00;99014.59;10411979;28;19987;-80
2022/05/06 22:54:21;;;;;;;;;;;;;;;11.74;100.00;98999.56;10435924;28;19968;-80
2022/05/06 22:59:24;;;;;;;;;;;;;;;11.71;100.00;98998.00;10438622;28;20394;-79
2022/05/06 23:04:27;;;;;;;;;;;;;;;11.64;100.00;98996.09;10469461;28;20708;-79
2022/05/06 23:09:31;;;;;;;;;;;;;;;11.50;100.00;98992.06;10466396;28;20050;-80
2022/05/06 23:14:35;;;;;;;;;;;;;;;11.33;100.00;98991.91;10468969;28;19967;-80
2022/05/06 23:19:37;;;;;;;;;;;;;;;11.17;100.00;98989.84;10297998;28;5000850;-82
2022/05/06 23:24:42;;;;;;;;;;;;;;;11.04;100.00;98990.22;10479942;28;19933;-80
2022/05/06 23:29:45;;;;;;;;;;;;;;;10.89;100.00;98987.19;10478995;28;20016;-81
2022/05/06 23:34:48;;;;;;;;;;;;;;;10.79;100.00;98992.59;10486736;28;20281;-80
2022/05/06 23:39:52;;;;;;;;;;;;;;;10.70;100.00;98998.06;10479669;28;19956;-80
2022/05/06 23:44:55;;;;;;;;;;;;;;;10.64;100.00;98994.13;10486757;28;19932;-80
2022/05/06 23:49:58;;;;;;;;;;;;;;;10.61;100.00;98994.41;10467546;28;19972;-81
2022/05/06 23:55:04;;;;;;;;;;;;;;;10.55;100.00;98990.44;10445115;28;19940;-80
